LIRALIRP

Guest
Details From LIRA - CIAMPINO
To LIRP - PISA
Flight Number -
Tags decoded
Created
Modified
Stats Distance 183 nm / 338 km
Max Altitude 0 ft / 0 m
Waypoints 5
Social Downloads 0
Likes 0
Share VATSIM

Download

Looking for another format? Having issues loading an existing format? Contact us
Advertisement - Login to hide

Notes

Requested: LIRA OST GILIO M729 NORNI LIRP Unmatched points: M729

Route

LIRA OST GILIO NORNI LIRP

ID Type Via Altitude Latitude Longitude Leg Dist Tot Dist Heading (true) Name
O LIRA APT - 0 ft / 0 m 41.79923˚ 12.59492˚ - 0 nm - CIAMPINO
OST NDB - 0 ft / 0 m 41.80528˚ 12.23639˚ 16 nm 16 nm 271° / 271° OSTIA NDB
GILIO FIX - 0 ft / 0 m 42.36667˚ 10.92611˚ 67 nm 83 nm 300° / 300° -
NORNI FIX - 0 ft / 0 m 43.27889˚ 9.97972˚ 68 nm 152 nm 323° / 322° -
O LIRP APT - 0 ft / 0 m 43.68388˚ 10.39272˚ 30 nm 182 nm 36° / 37° PISA

Altitude Profile

Advertisement - Login to hide

Weather


0- 5 10 15 20 25 30 35+ Temperature / ° C

Clouds and Precipitation
Forecast for 2018-05-20 12:00 UTC. Updated 3 hours ago

Ground ~20,000 ft ~40,000 ft Winds

LIRA

Details ICAO LIRA (CIA)
Name CIAMPINO
Region Italy
Timezone Europe/Rome (UTC+2.0)
Stats Elevation 427 ft / 130 m (AMSL)
Location 41.799228° 12.594917°
Runways 1
Magnetic Variation 3.103° E

METAR

LIRA 201420Z 22006KT 180V280 9999 VCSH SCT030CB 25/13 Q1012

Decode

TAF

TAF LIRA 201100Z 2012/2112 25010KT 9999 SCT030 TEMPO 2012/2015 SHRA BECMG 2016/2018 VRB05KT TEMPO 2109/2112 SHRA

Decode

Departure Runways

ID Width Length Bearing (true) Bearing (mag) Surface Threshold Offset Overrun Length
15 154 ft / 47 m 7,246 ft / 2,209 m 152.79° 149.69° Asphalt 0 ft / 0 m 0 ft / 0 m
33 154 ft / 47 m 7,246 ft / 2,209 m 332.80° 329.70° Asphalt 0 ft / 0 m 0 ft / 0 m

LIRP

Details ICAO LIRP (PSA)
Name PISA
Region Italy
Timezone Europe/Rome (UTC+2.0)
Stats Elevation 6 ft / 2 m (AMSL)
Location 43.683883° 10.392724°
Runways 2
Magnetic Variation 2.751° E

METAR

LIRP 201415Z 31010KT 9999 FEW030CB SCT040 24/14 Q1013 TEMPO 5000 VCSH

Decode

TAF

TAF LIRP 201100Z 2012/2112 27010KT 9999 SCT040 TEMPO 2012/2018 5000 SHRA FEW020CB SCT040 BECMG 2020/2022 09005KT TEMPO 2106/2112 5000 TSRA FEW020CB BKN040 BECMG 2110/2112 27010KT

Decode

Destination Runways

ID Width Length Bearing (true) Bearing (mag) Surface Threshold Offset Overrun Length
04L 141 ft / 43 m 9,158 ft / 2,791 m 36.70° 33.95° Asphalt 979 ft / 298 m 0 ft / 0 m
04R 148 ft / 45 m 9,819 ft / 2,993 m 36.72° 33.97° Asphalt 490 ft / 149 m 0 ft / 0 m
22L 148 ft / 45 m 9,819 ft / 2,993 m 216.73° 213.98° Asphalt 843 ft / 257 m 0 ft / 0 m
22R 141 ft / 43 m 9,158 ft / 2,791 m 216.72° 213.97° Asphalt 0 ft / 0 m 0 ft / 0 m

Approach Navaids

Runway Type Ident Frequency Range Bearing (true) Bearing (mag) Slope Elevation
04R Localiser IPI 109.70 MHz 18 nm / 33 km 36.76° 34.01° - 7 ft / 2 m (AMSL)
04R Glidescope IPI 109.70 MHz 10 nm / 19 km 36.72° 33.97° 3.00° 3 ft / 1 m (AMSL)

Popular Alternatives